sensor_id;sensor_type;location;lat;lon;timestamp;P1;durP1;ratioP1;P2;durP2;ratioP2
59145;SDS011;44928;53.074;6.646;2024-03-17T00:00:30;7.70;;;2.42;;
59145;SDS011;44928;53.074;6.646;2024-03-17T00:02:57;9.88;;;2.75;;
59145;SDS011;44928;53.074;6.646;2024-03-17T00:05:23;9.98;;;2.78;;
59145;SDS011;44928;53.074;6.646;2024-03-17T00:07:48;11.23;;;2.90;;
59145;SDS011;44928;53.074;6.646;2024-03-17T00:10:14;9.88;;;2.53;;
59145;SDS011;44928;53.074;6.646;2024-03-17T00:12:40;8.60;;;2.70;;
59145;SDS011;44928;53.074;6.646;2024-03-17T00:15:06;9.07;;;2.40;;
59145;SDS011;44928;53.074;6.646;2024-03-17T00:17:33;9.23;;;2.50;;
59145;SDS011;44928;53.074;6.646;2024-03-17T00:20:00;9.50;;;2.42;;
59145;SDS011;44928;53.074;6.646;2024-03-17T00:22:34;9.88;;;2.50;;
59145;SDS011;44928;53.074;6.646;2024-03-17T00:25:06;9.38;;;2.60;;
59145;SDS011;44928;53.074;6.646;2024-03-17T00:27:32;9.65;;;2.80;;
59145;SDS011;44928;53.074;6.646;2024-03-17T00:29:59;7.35;;;2.38;;
59145;SDS011;44928;53.074;6.646;2024-03-17T00:32:25;7.53;;;2.17;;
59145;SDS011;44928;53.074;6.646;2024-03-17T00:34:51;8.25;;;2.78;;
59145;SDS011;44928;53.074;6.646;2024-03-17T00:37:17;7.78;;;2.83;;
59145;SDS011;44928;53.074;6.646;2024-03-17T00:39:42;9.93;;;2.63;;
59145;SDS011;44928;53.074;6.646;2024-03-17T00:42:08;6.03;;;2.03;;
59145;SDS011;44928;53.074;6.646;2024-03-17T00:44:34;6.18;;;1.73;;
59145;SDS011;44928;53.074;6.646;2024-03-17T00:47:00;5.80;;;1.88;;
59145;SDS011;44928;53.074;6.646;2024-03-17T00:49:26;4.13;;;1.40;;
59145;SDS011;44928;53.074;6.646;2024-03-17T00:51:52;6.95;;;1.83;;
59145;SDS011;44928;53.074;6.646;2024-03-17T00:54:17;7.38;;;2.00;;
59145;SDS011;44928;53.074;6.646;2024-03-17T00:56:43;9.90;;;2.95;;
59145;SDS011;44928;53.074;6.646;2024-03-17T00:59:09;9.20;;;2.10;;
59145;SDS011;44928;53.074;6.646;2024-03-17T01:01:35;7.00;;;2.25;;
59145;SDS011;44928;53.074;6.646;2024-03-17T01:04:00;9.00;;;2.30;;
59145;SDS011;44928;53.074;6.646;2024-03-17T01:06:26;8.93;;;2.75;;
59145;SDS011;44928;53.074;6.646;2024-03-17T01:08:52;8.68;;;2.55;;
59145;SDS011;44928;53.074;6.646;2024-03-17T01:11:18;9.90;;;2.50;;
59145;SDS011;44928;53.074;6.646;2024-03-17T01:13:44;7.55;;;2.42;;
59145;SDS011;44928;53.074;6.646;2024-03-17T01:16:11;10.60;;;2.55;;
59145;SDS011;44928;53.074;6.646;2024-03-17T01:18:38;7.50;;;2.53;;
59145;SDS011;44928;53.074;6.646;2024-03-17T01:21:05;9.77;;;2.63;;
59145;SDS011;44928;53.074;6.646;2024-03-17T01:23:32;7.57;;;2.30;;
59145;SDS011;44928;53.074;6.646;2024-03-17T01:25:58;8.55;;;2.58;;
59145;SDS011;44928;53.074;6.646;2024-03-17T01:28:24;8.63;;;2.22;;
59145;SDS011;44928;53.074;6.646;2024-03-17T01:30:50;6.53;;;2.10;;
59145;SDS011;44928;53.074;6.646;2024-03-17T01:33:15;8.13;;;2.58;;
59145;SDS011;44928;53.074;6.646;2024-03-17T01:35:42;9.35;;;3.15;;
59145;SDS011;44928;53.074;6.646;2024-03-17T01:38:08;7.55;;;2.53;;
59145;SDS011;44928;53.074;6.646;2024-03-17T01:40:35;6.80;;;2.25;;
59145;SDS011;44928;53.074;6.646;2024-03-17T01:43:02;8.15;;;2.33;;
59145;SDS011;44928;53.074;6.646;2024-03-17T01:45:28;7.70;;;2.10;;
59145;SDS011;44928;53.074;6.646;2024-03-17T01:47:56;7.38;;;2.10;;
59145;SDS011;44928;53.074;6.646;2024-03-17T01:50:28;7.88;;;2.20;;
59145;SDS011;44928;53.074;6.646;2024-03-17T01:53:00;5.95;;;1.92;;
59145;SDS011;44928;53.074;6.646;2024-03-17T01:55:30;6.03;;;2.00;;
59145;SDS011;44928;53.074;6.646;2024-03-17T01:57:57;6.32;;;1.90;;
59145;SDS011;44928;53.074;6.646;2024-03-17T02:00:23;7.68;;;2.38;;
59145;SDS011;44928;53.074;6.646;2024-03-17T02:02:49;6.07;;;1.90;;
59145;SDS011;44928;53.074;6.646;2024-03-17T02:05:15;7.55;;;2.17;;
59145;SDS011;44928;53.074;6.646;2024-03-17T02:07:41;6.47;;;1.80;;
59145;SDS011;44928;53.074;6.646;2024-03-17T02:10:07;7.50;;;2.10;;
59145;SDS011;44928;53.074;6.646;2024-03-17T02:12:33;6.63;;;1.83;;
59145;SDS011;44928;53.074;6.646;2024-03-17T02:15:01;7.88;;;2.20;;
59145;SDS011;44928;53.074;6.646;2024-03-17T02:17:30;9.70;;;2.70;;
59145;SDS011;44928;53.074;6.646;2024-03-17T02:19:57;10.73;;;2.22;;
59145;SDS011;44928;53.074;6.646;2024-03-17T02:22:23;7.57;;;1.95;;
59145;SDS011;44928;53.074;6.646;2024-03-17T02:24:48;9.18;;;2.35;;
59145;SDS011;44928;53.074;6.646;2024-03-17T02:27:14;7.95;;;2.38;;
59145;SDS011;44928;53.074;6.646;2024-03-17T02:29:40;7.45;;;2.40;;
59145;SDS011;44928;53.074;6.646;2024-03-17T02:32:06;9.73;;;2.58;;
59145;SDS011;44928;53.074;6.646;2024-03-17T02:34:33;9.63;;;2.13;;
59145;SDS011;44928;53.074;6.646;2024-03-17T02:36:59;6.40;;;2.40;;
59145;SDS011;44928;53.074;6.646;2024-03-17T02:39:26;11.15;;;2.05;;
59145;SDS011;44928;53.074;6.646;2024-03-17T02:44:27;10.00;;;2.50;;
59145;SDS011;44928;53.074;6.646;2024-03-17T02:46:55;7.30;;;2.00;;
59145;SDS011;44928;53.074;6.646;2024-03-17T02:49:22;9.68;;;2.90;;
59145;SDS011;44928;53.074;6.646;2024-03-17T02:51:49;6.03;;;2.00;;
59145;SDS011;44928;53.074;6.646;2024-03-17T02:54:14;7.43;;;2.10;;
59145;SDS011;44928;53.074;6.646;2024-03-17T02:56:40;7.95;;;2.08;;
59145;SDS011;44928;53.074;6.646;2024-03-17T02:59:07;8.40;;;2.03;;
59145;SDS011;44928;53.074;6.646;2024-03-17T03:01:33;7.68;;;2.45;;
59145;SDS011;44928;53.074;6.646;2024-03-17T03:03:59;6.03;;;1.80;;
59145;SDS011;44928;53.074;6.646;2024-03-17T03:06:25;10.30;;;2.20;;
59145;SDS011;44928;53.074;6.646;2024-03-17T03:08:51;9.60;;;2.33;;
59145;SDS011;44928;53.074;6.646;2024-03-17T03:11:17;8.70;;;2.22;;
59145;SDS011;44928;53.074;6.646;2024-03-17T03:13:43;6.90;;;2.22;;
59145;SDS011;44928;53.074;6.646;2024-03-17T03:16:13;6.50;;;2.10;;
59145;SDS011;44928;53.074;6.646;2024-03-17T03:18:39;5.72;;;1.95;;
59145;SDS011;44928;53.074;6.646;2024-03-17T03:21:06;6.20;;;1.90;;
59145;SDS011;44928;53.074;6.646;2024-03-17T03:23:32;6.25;;;1.85;;
59145;SDS011;44928;53.074;6.646;2024-03-17T03:25:59;5.03;;;1.50;;
59145;SDS011;44928;53.074;6.646;2024-03-17T03:28:29;5.80;;;1.70;;
59145;SDS011;44928;53.074;6.646;2024-03-17T03:30:56;4.80;;;1.50;;
59145;SDS011;44928;53.074;6.646;2024-03-17T03:33:22;5.50;;;1.73;;
59145;SDS011;44928;53.074;6.646;2024-03-17T03:35:48;6.45;;;1.55;;
59145;SDS011;44928;53.074;6.646;2024-03-17T03:38:15;5.22;;;1.77;;
59145;SDS011;44928;53.074;6.646;2024-03-17T03:40:41;4.50;;;1.75;;
59145;SDS011;44928;53.074;6.646;2024-03-17T03:43:08;5.55;;;1.52;;
59145;SDS011;44928;53.074;6.646;2024-03-17T03:45:34;7.07;;;1.65;;
59145;SDS011;44928;53.074;6.646;2024-03-17T03:48:01;6.72;;;2.10;;
59145;SDS011;44928;53.074;6.646;2024-03-17T03:50:28;7.78;;;1.70;;
59145;SDS011;44928;53.074;6.646;2024-03-17T03:52:54;6.38;;;1.73;;
59145;SDS011;44928;53.074;6.646;2024-03-17T03:55:20;8.05;;;2.33;;
59145;SDS011;44928;53.074;6.646;2024-03-17T03:57:46;6.40;;;2.40;;
59145;SDS011;44928;53.074;6.646;2024-03-17T04:00:18;6.93;;;1.95;;
59145;SDS011;44928;53.074;6.646;2024-03-17T04:02:51;8.65;;;2.40;;
59145;SDS011;44928;53.074;6.646;2024-03-17T04:05:20;6.43;;;2.13;;
59145;SDS011;44928;53.074;6.646;2024-03-17T04:07:47;7.25;;;1.92;;
59145;SDS011;44928;53.074;6.646;2024-03-17T04:10:13;7.75;;;2.00;;
59145;SDS011;44928;53.074;6.646;2024-03-17T04:12:40;8.40;;;2.50;;
59145;SDS011;44928;53.074;6.646;2024-03-17T04:15:07;8.52;;;2.70;;
59145;SDS011;44928;53.074;6.646;2024-03-17T04:17:35;9.15;;;2.40;;
59145;SDS011;44928;53.074;6.646;2024-03-17T04:20:02;8.05;;;2.35;;
59145;SDS011;44928;53.074;6.646;2024-03-17T04:22:30;6.35;;;2.10;;
59145;SDS011;44928;53.074;6.646;2024-03-17T04:24:56;12.02;;;2.50;;
59145;SDS011;44928;53.074;6.646;2024-03-17T04:27:22;7.63;;;2.33;;
59145;SDS011;44928;53.074;6.646;2024-03-17T04:29:54;8.02;;;2.40;;
59145;SDS011;44928;53.074;6.646;2024-03-17T04:32:22;7.53;;;2.25;;
59145;SDS011;44928;53.074;6.646;2024-03-17T04:34:48;7.13;;;2.55;;
59145;SDS011;44928;53.074;6.646;2024-03-17T04:37:14;6.60;;;2.10;;
59145;SDS011;44928;53.074;6.646;2024-03-17T04:39:42;9.93;;;2.72;;
59145;SDS011;44928;53.074;6.646;2024-03-17T04:42:10;6.32;;;1.95;;
59145;SDS011;44928;53.074;6.646;2024-03-17T04:44:36;7.38;;;2.20;;
59145;SDS011;44928;53.074;6.646;2024-03-17T04:47:02;7.40;;;2.45;;
59145;SDS011;44928;53.074;6.646;2024-03-17T04:49:35;6.20;;;1.80;;
59145;SDS011;44928;53.074;6.646;2024-03-17T04:52:05;8.05;;;2.28;;
59145;SDS011;44928;53.074;6.646;2024-03-17T04:54:32;8.15;;;2.28;;
59145;SDS011;44928;53.074;6.646;2024-03-17T04:56:58;6.00;;;2.28;;
59145;SDS011;44928;53.074;6.646;2024-03-17T04:59:24;7.32;;;2.00;;
59145;SDS011;44928;53.074;6.646;2024-03-17T05:01:50;8.15;;;2.20;;
59145;SDS011;44928;53.074;6.646;2024-03-17T05:04:16;10.70;;;2.63;;
59145;SDS011;44928;53.074;6.646;2024-03-17T05:06:42;8.13;;;2.35;;
59145;SDS011;44928;53.074;6.646;2024-03-17T05:09:14;7.18;;;2.35;;
59145;SDS011;44928;53.074;6.646;2024-03-17T05:11:43;7.63;;;2.50;;
59145;SDS011;44928;53.074;6.646;2024-03-17T05:14:10;10.15;;;2.67;;
59145;SDS011;44928;53.074;6.646;2024-03-17T05:16:36;8.63;;;2.50;;
59145;SDS011;44928;53.074;6.646;2024-03-17T05:19:02;7.70;;;2.45;;
59145;SDS011;44928;53.074;6.646;2024-03-17T05:21:29;7.90;;;2.22;;
59145;SDS011;44928;53.074;6.646;2024-03-17T05:23:55;6.28;;;2.33;;
59145;SDS011;44928;53.074;6.646;2024-03-17T05:26:24;8.48;;;2.60;;
59145;SDS011;44928;53.074;6.646;2024-03-17T05:28:51;8.82;;;2.65;;
59145;SDS011;44928;53.074;6.646;2024-03-17T05:31:16;9.82;;;3.10;;
59145;SDS011;44928;53.074;6.646;2024-03-17T05:33:43;7.82;;;2.50;;
59145;SDS011;44928;53.074;6.646;2024-03-17T05:36:09;8.93;;;2.25;;
59145;SDS011;44928;53.074;6.646;2024-03-17T05:38:35;8.15;;;2.60;;
59145;SDS011;44928;53.074;6.646;2024-03-17T05:41:04;10.73;;;3.22;;
59145;SDS011;44928;53.074;6.646;2024-03-17T05:43:32;8.80;;;2.97;;
59145;SDS011;44928;53.074;6.646;2024-03-17T05:46:01;8.05;;;2.85;;
59145;SDS011;44928;53.074;6.646;2024-03-17T05:48:28;10.63;;;2.85;;
59145;SDS011;44928;53.074;6.646;2024-03-17T05:50:54;10.38;;;4.65;;
59145;SDS011;44928;53.074;6.646;2024-03-17T05:53:21;9.77;;;3.58;;
59145;SDS011;44928;53.074;6.646;2024-03-17T05:55:50;8.15;;;2.92;;
59145;SDS011;44928;53.074;6.646;2024-03-17T05:58:16;7.85;;;2.90;;
59145;SDS011;44928;53.074;6.646;2024-03-17T06:00:42;8.10;;;2.97;;
59145;SDS011;44928;53.074;6.646;2024-03-17T06:03:09;9.48;;;2.97;;
59145;SDS011;44928;53.074;6.646;2024-03-17T06:05:35;9.80;;;2.83;;
59145;SDS011;44928;53.074;6.646;2024-03-17T06:08:03;11.63;;;3.47;;
59145;SDS011;44928;53.074;6.646;2024-03-17T06:10:30;9.38;;;2.75;;
59145;SDS011;44928;53.074;6.646;2024-03-17T06:12:58;7.35;;;2.65;;
59145;SDS011;44928;53.074;6.646;2024-03-17T06:15:24;10.98;;;3.30;;
59145;SDS011;44928;53.074;6.646;2024-03-17T06:17:51;10.38;;;3.65;;
59145;SDS011;44928;53.074;6.646;2024-03-17T06:20:21;11.68;;;3.42;;
59145;SDS011;44928;53.074;6.646;2024-03-17T06:22:49;11.65;;;3.40;;
59145;SDS011;44928;53.074;6.646;2024-03-17T06:25:15;9.80;;;4.00;;
59145;SDS011;44928;53.074;6.646;2024-03-17T06:27:41;10.02;;;4.10;;
59145;SDS011;44928;53.074;6.646;2024-03-17T06:30:13;11.82;;;3.70;;
59145;SDS011;44928;53.074;6.646;2024-03-17T06:32:40;8.95;;;3.47;;
59145;SDS011;44928;53.074;6.646;2024-03-17T06:35:06;10.13;;;3.42;;
59145;SDS011;44928;53.074;6.646;2024-03-17T06:37:33;12.50;;;3.55;;
59145;SDS011;44928;53.074;6.646;2024-03-17T06:39:59;12.55;;;3.88;;
59145;SDS011;44928;53.074;6.646;2024-03-17T06:42:26;11.25;;;4.18;;
59145;SDS011;44928;53.074;6.646;2024-03-17T06:44:52;8.68;;;3.70;;
59145;SDS011;44928;53.074;6.646;2024-03-17T06:47:17;8.75;;;3.50;;
59145;SDS011;44928;53.074;6.646;2024-03-17T06:49:44;12.65;;;3.55;;
59145;SDS011;44928;53.074;6.646;2024-03-17T06:52:10;10.13;;;3.25;;
59145;SDS011;44928;53.074;6.646;2024-03-17T06:54:36;12.73;;;3.78;;
59145;SDS011;44928;53.074;6.646;2024-03-17T06:57:02;11.68;;;4.28;;
59145;SDS011;44928;53.074;6.646;2024-03-17T06:59:27;10.50;;;3.40;;
59145;SDS011;44928;53.074;6.646;2024-03-17T07:01:53;12.23;;;3.90;;
59145;SDS011;44928;53.074;6.646;2024-03-17T07:04:19;9.98;;;3.17;;
59145;SDS011;44928;53.074;6.646;2024-03-17T07:06:46;10.30;;;3.45;;
59145;SDS011;44928;53.074;6.646;2024-03-17T07:09:12;12.98;;;3.00;;
59145;SDS011;44928;53.074;6.646;2024-03-17T07:11:37;10.23;;;3.28;;
59145;SDS011;44928;53.074;6.646;2024-03-17T07:14:03;12.05;;;3.28;;
59145;SDS011;44928;53.074;6.646;2024-03-17T07:16:29;10.65;;;3.35;;
59145;SDS011;44928;53.074;6.646;2024-03-17T07:18:57;9.50;;;2.92;;
59145;SDS011;44928;53.074;6.646;2024-03-17T07:21:23;12.60;;;2.63;;
59145;SDS011;44928;53.074;6.646;2024-03-17T07:23:49;9.85;;;3.05;;
59145;SDS011;44928;53.074;6.646;2024-03-17T07:26:15;9.40;;;2.65;;
59145;SDS011;44928;53.074;6.646;2024-03-17T07:28:40;10.32;;;2.30;;
59145;SDS011;44928;53.074;6.646;2024-03-17T07:31:08;9.48;;;2.70;;
59145;SDS011;44928;53.074;6.646;2024-03-17T07:33:34;8.93;;;2.67;;
59145;SDS011;44928;53.074;6.646;2024-03-17T07:36:00;10.48;;;2.35;;
59145;SDS011;44928;53.074;6.646;2024-03-17T07:38:27;10.90;;;3.13;;
59145;SDS011;44928;53.074;6.646;2024-03-17T07:43:24;7.60;;;2.30;;
59145;SDS011;44928;53.074;6.646;2024-03-17T07:46:00;10.50;;;2.55;;
59145;SDS011;44928;53.074;6.646;2024-03-17T07:48:27;8.05;;;2.28;;
59145;SDS011;44928;53.074;6.646;2024-03-17T07:50:57;7.88;;;1.92;;
59145;SDS011;44928;53.074;6.646;2024-03-17T07:53:24;7.47;;;2.05;;
59145;SDS011;44928;53.074;6.646;2024-03-17T07:55:59;10.18;;;2.50;;
59145;SDS011;44928;53.074;6.646;2024-03-17T07:58:30;8.55;;;2.17;;
59145;SDS011;44928;53.074;6.646;2024-03-17T08:01:01;6.90;;;2.35;;
59145;SDS011;44928;53.074;6.646;2024-03-17T08:03:28;8.98;;;2.20;;
59145;SDS011;44928;53.074;6.646;2024-03-17T08:05:56;11.02;;;3.05;;
59145;SDS011;44928;53.074;6.646;2024-03-17T08:08:23;8.98;;;2.30;;
59145;SDS011;44928;53.074;6.646;2024-03-17T08:10:49;8.65;;;1.98;;
59145;SDS011;44928;53.074;6.646;2024-03-17T08:13:15;8.90;;;2.15;;
59145;SDS011;44928;53.074;6.646;2024-03-17T08:15:45;11.85;;;3.50;;
59145;SDS011;44928;53.074;6.646;2024-03-17T08:18:11;10.23;;;2.10;;
59145;SDS011;44928;53.074;6.646;2024-03-17T08:20:41;10.13;;;2.28;;
59145;SDS011;44928;53.074;6.646;2024-03-17T08:23:08;8.88;;;2.45;;
59145;SDS011;44928;53.074;6.646;2024-03-17T08:25:36;7.93;;;2.33;;
59145;SDS011;44928;53.074;6.646;2024-03-17T08:28:02;8.15;;;2.28;;
59145;SDS011;44928;53.074;6.646;2024-03-17T08:30:28;8.00;;;2.13;;
59145;SDS011;44928;53.074;6.646;2024-03-17T08:32:57;8.93;;;2.75;;
59145;SDS011;44928;53.074;6.646;2024-03-17T08:35:23;7.35;;;2.13;;
59145;SDS011;44928;53.074;6.646;2024-03-17T08:37:49;10.88;;;2.15;;
59145;SDS011;44928;53.074;6.646;2024-03-17T08:40:25;13.05;;;2.75;;
59145;SDS011;44928;53.074;6.646;2024-03-17T08:42:51;8.23;;;2.45;;
59145;SDS011;44928;53.074;6.646;2024-03-17T08:45:17;10.85;;;2.60;;
59145;SDS011;44928;53.074;6.646;2024-03-17T08:47:43;8.02;;;2.45;;
59145;SDS011;44928;53.074;6.646;2024-03-17T08:50:08;11.10;;;2.92;;
59145;SDS011;44928;53.074;6.646;2024-03-17T08:52:37;10.43;;;2.80;;
59145;SDS011;44928;53.074;6.646;2024-03-17T08:55:03;9.52;;;2.70;;
59145;SDS011;44928;53.074;6.646;2024-03-17T08:57:34;12.85;;;3.65;;
59145;SDS011;44928;53.074;6.646;2024-03-17T09:00:00;10.10;;;3.10;;
59145;SDS011;44928;53.074;6.646;2024-03-17T09:02:26;10.40;;;2.75;;
59145;SDS011;44928;53.074;6.646;2024-03-17T09:04:52;11.57;;;2.67;;
59145;SDS011;44928;53.074;6.646;2024-03-17T09:07:18;11.57;;;3.20;;
59145;SDS011;44928;53.074;6.646;2024-03-17T09:09:46;11.35;;;3.53;;
59145;SDS011;44928;53.074;6.646;2024-03-17T09:12:13;9.35;;;3.17;;
59145;SDS011;44928;53.074;6.646;2024-03-17T09:14:39;9.82;;;3.30;;
59145;SDS011;44928;53.074;6.646;2024-03-17T09:17:06;9.05;;;2.97;;
59145;SDS011;44928;53.074;6.646;2024-03-17T09:19:32;11.18;;;3.60;;
59145;SDS011;44928;53.074;6.646;2024-03-17T09:21:58;10.55;;;3.45;;
59145;SDS011;44928;53.074;6.646;2024-03-17T09:24:24;10.48;;;3.08;;
59145;SDS011;44928;53.074;6.646;2024-03-17T09:26:50;12.35;;;3.40;;
59145;SDS011;44928;53.074;6.646;2024-03-17T09:29:18;11.68;;;3.80;;
59145;SDS011;44928;53.074;6.646;2024-03-17T09:31:43;10.80;;;3.45;;
59145;SDS011;44928;53.074;6.646;2024-03-17T09:34:09;10.43;;;3.45;;
59145;SDS011;44928;53.074;6.646;2024-03-17T09:36:35;9.48;;;3.65;;
59145;SDS011;44928;53.074;6.646;2024-03-17T09:39:01;10.07;;;3.90;;
59145;SDS011;44928;53.074;6.646;2024-03-17T09:41:29;11.77;;;3.88;;
59145;SDS011;44928;53.074;6.646;2024-03-17T09:43:58;10.50;;;4.47;;
59145;SDS011;44928;53.074;6.646;2024-03-17T09:46:25;11.43;;;3.97;;
59145;SDS011;44928;53.074;6.646;2024-03-17T09:48:53;13.13;;;4.15;;
59145;SDS011;44928;53.074;6.646;2024-03-17T09:51:20;11.68;;;4.18;;
59145;SDS011;44928;53.074;6.646;2024-03-17T09:53:47;11.80;;;4.88;;
59145;SDS011;44928;53.074;6.646;2024-03-17T09:56:15;9.15;;;4.07;;
59145;SDS011;44928;53.074;6.646;2024-03-17T09:58:44;11.65;;;4.30;;
59145;SDS011;44928;53.074;6.646;2024-03-17T10:01:10;12.00;;;4.20;;
59145;SDS011;44928;53.074;6.646;2024-03-17T10:06:17;13.77;;;5.25;;
59145;SDS011;44928;53.074;6.646;2024-03-17T10:08:44;12.15;;;4.70;;
59145;SDS011;44928;53.074;6.646;2024-03-17T10:11:11;11.30;;;4.38;;
59145;SDS011;44928;53.074;6.646;2024-03-17T10:13:39;11.32;;;4.82;;
59145;SDS011;44928;53.074;6.646;2024-03-17T10:16:05;10.48;;;4.57;;
59145;SDS011;44928;53.074;6.646;2024-03-17T10:18:31;10.23;;;4.68;;
59145;SDS011;44928;53.074;6.646;2024-03-17T10:20:57;11.80;;;4.82;;
59145;SDS011;44928;53.074;6.646;2024-03-17T10:23:24;10.73;;;4.70;;
59145;SDS011;44928;53.074;6.646;2024-03-17T10:25:50;15.52;;;4.82;;
59145;SDS011;44928;53.074;6.646;2024-03-17T10:28:16;12.57;;;4.68;;
59145;SDS011;44928;53.074;6.646;2024-03-17T10:30:56;11.15;;;4.35;;
59145;SDS011;44928;53.074;6.646;2024-03-17T10:33:23;15.05;;;4.40;;
59145;SDS011;44928;53.074;6.646;2024-03-17T10:35:59;11.85;;;4.60;;
59145;SDS011;44928;53.074;6.646;2024-03-17T10:38:26;9.60;;;3.75;;
59145;SDS011;44928;53.074;6.646;2024-03-17T10:40:53;9.52;;;4.50;;
59145;SDS011;44928;53.074;6.646;2024-03-17T10:43:19;13.55;;;4.60;;
59145;SDS011;44928;53.074;6.646;2024-03-17T10:45:51;13.77;;;5.10;;
59145;SDS011;44928;53.074;6.646;2024-03-17T10:48:19;11.65;;;4.60;;
59145;SDS011;44928;53.074;6.646;2024-03-17T10:50:49;10.95;;;4.55;;
59145;SDS011;44928;53.074;6.646;2024-03-17T10:53:19;11.43;;;5.05;;
59145;SDS011;44928;53.074;6.646;2024-03-17T10:55:51;13.70;;;5.05;;
59145;SDS011;44928;53.074;6.646;2024-03-17T10:58:35;13.63;;;4.88;;
59145;SDS011;44928;53.074;6.646;2024-03-17T11:01:03;11.77;;;4.60;;
59145;SDS011;44928;53.074;6.646;2024-03-17T11:03:32;11.48;;;4.78;;
59145;SDS011;44928;53.074;6.646;2024-03-17T11:06:01;10.05;;;4.45;;
59145;SDS011;44928;53.074;6.646;2024-03-17T11:08:29;9.60;;;4.97;;
59145;SDS011;44928;53.074;6.646;2024-03-17T11:10:58;11.68;;;4.43;;
59145;SDS011;44928;53.074;6.646;2024-03-17T11:13:30;10.13;;;4.22;;
59145;SDS011;44928;53.074;6.646;2024-03-17T11:15:57;10.70;;;5.00;;
59145;SDS011;44928;53.074;6.646;2024-03-17T11:21:18;13.77;;;5.60;;
59145;SDS011;44928;53.074;6.646;2024-03-17T11:23:57;9.50;;;4.60;;
59145;SDS011;44928;53.074;6.646;2024-03-17T11:26:29;13.00;;;6.05;;
59145;SDS011;44928;53.074;6.646;2024-03-17T11:28:58;9.57;;;4.60;;
59145;SDS011;44928;53.074;6.646;2024-03-17T11:31:32;11.48;;;5.60;;
59145;SDS011;44928;53.074;6.646;2024-03-17T11:34:03;11.02;;;4.80;;
59145;SDS011;44928;53.074;6.646;2024-03-17T11:36:33;10.52;;;5.05;;
59145;SDS011;44928;53.074;6.646;2024-03-17T11:49:18;12.45;;;5.60;;
59145;SDS011;44928;53.074;6.646;2024-03-17T11:51:46;10.15;;;5.63;;
59145;SDS011;44928;53.074;6.646;2024-03-17T11:54:16;9.02;;;4.93;;
59145;SDS011;44928;53.074;6.646;2024-03-17T11:56:50;12.18;;;5.43;;
59145;SDS011;44928;53.074;6.646;2024-03-17T11:59:20;12.50;;;5.88;;
59145;SDS011;44928;53.074;6.646;2024-03-17T12:01:47;11.65;;;5.70;;
59145;SDS011;44928;53.074;6.646;2024-03-17T12:04:15;10.55;;;5.82;;
59145;SDS011;44928;53.074;6.646;2024-03-17T12:06:45;13.10;;;5.93;;
59145;SDS011;44928;53.074;6.646;2024-03-17T12:09:20;14.48;;;6.03;;
59145;SDS011;44928;53.074;6.646;2024-03-17T12:12:05;11.23;;;5.78;;
59145;SDS011;44928;53.074;6.646;2024-03-17T12:14:39;11.57;;;6.15;;
59145;SDS011;44928;53.074;6.646;2024-03-17T12:17:06;11.90;;;5.55;;
59145;SDS011;44928;53.074;6.646;2024-03-17T12:19:36;11.73;;;6.22;;
59145;SDS011;44928;53.074;6.646;2024-03-17T12:22:03;11.35;;;5.78;;
59145;SDS011;44928;53.074;6.646;2024-03-17T12:24:31;12.32;;;6.40;;
59145;SDS011;44928;53.074;6.646;2024-03-17T12:26:58;13.40;;;6.60;;
59145;SDS011;44928;53.074;6.646;2024-03-17T12:29:35;11.40;;;6.07;;
59145;SDS011;44928;53.074;6.646;2024-03-17T12:32:03;11.05;;;5.57;;
59145;SDS011;44928;53.074;6.646;2024-03-17T12:34:36;10.75;;;6.50;;
59145;SDS011;44928;53.074;6.646;2024-03-17T12:37:02;13.23;;;6.45;;
59145;SDS011;44928;53.074;6.646;2024-03-17T12:39:30;11.68;;;6.25;;
59145;SDS011;44928;53.074;6.646;2024-03-17T12:42:04;10.90;;;6.53;;
59145;SDS011;44928;53.074;6.646;2024-03-17T12:44:36;12.73;;;7.40;;
59145;SDS011;44928;53.074;6.646;2024-03-17T12:47:16;12.48;;;6.50;;
59145;SDS011;44928;53.074;6.646;2024-03-17T12:49:51;14.13;;;7.55;;
59145;SDS011;44928;53.074;6.646;2024-03-17T12:52:31;13.95;;;7.07;;
59145;SDS011;44928;53.074;6.646;2024-03-17T12:54:59;12.60;;;6.88;;
59145;SDS011;44928;53.074;6.646;2024-03-17T12:57:50;12.43;;;6.80;;
59145;SDS011;44928;53.074;6.646;2024-03-17T13:00:35;12.20;;;6.13;;
59145;SDS011;44928;53.074;6.646;2024-03-17T13:03:05;13.32;;;6.47;;
59145;SDS011;44928;53.074;6.646;2024-03-17T13:05:32;11.38;;;6.20;;
59145;SDS011;44928;53.074;6.646;2024-03-17T13:07:58;11.13;;;6.15;;
59145;SDS011;44928;53.074;6.646;2024-03-17T13:10:25;12.35;;;6.60;;
59145;SDS011;44928;53.074;6.646;2024-03-17T13:15:27;10.95;;;6.60;;
59145;SDS011;44928;53.074;6.646;2024-03-17T13:17:56;11.40;;;6.43;;
59145;SDS011;44928;53.074;6.646;2024-03-17T13:20:22;11.45;;;6.20;;
59145;SDS011;44928;53.074;6.646;2024-03-17T13:22:48;11.02;;;6.13;;
59145;SDS011;44928;53.074;6.646;2024-03-17T13:25:14;9.10;;;5.32;;
59145;SDS011;44928;53.074;6.646;2024-03-17T13:27:46;9.85;;;5.43;;
59145;SDS011;44928;53.074;6.646;2024-03-17T13:30:12;9.75;;;4.75;;
59145;SDS011;44928;53.074;6.646;2024-03-17T13:32:42;10.88;;;4.50;;
59145;SDS011;44928;53.074;6.646;2024-03-17T13:35:15;9.88;;;5.20;;
59145;SDS011;44928;53.074;6.646;2024-03-17T13:37:45;10.05;;;5.32;;
59145;SDS011;44928;53.074;6.646;2024-03-17T13:40:16;10.50;;;4.78;;
59145;SDS011;44928;53.074;6.646;2024-03-17T13:42:44;9.32;;;4.55;;
59145;SDS011;44928;53.074;6.646;2024-03-17T13:45:17;10.95;;;5.68;;
59145;SDS011;44928;53.074;6.646;2024-03-17T13:50:17;10.68;;;5.15;;
59145;SDS011;44928;53.074;6.646;2024-03-17T13:52:43;10.65;;;4.25;;
59145;SDS011;44928;53.074;6.646;2024-03-17T13:55:16;12.27;;;4.95;;
59145;SDS011;44928;53.074;6.646;2024-03-17T13:57:48;11.65;;;5.28;;
59145;SDS011;44928;53.074;6.646;2024-03-17T14:00:16;10.53;;;4.77;;
59145;SDS011;44928;53.074;6.646;2024-03-17T14:02:43;10.75;;;5.30;;
59145;SDS011;44928;53.074;6.646;2024-03-17T14:05:13;11.07;;;4.88;;
59145;SDS011;44928;53.074;6.646;2024-03-17T14:07:41;10.10;;;4.90;;
59145;SDS011;44928;53.074;6.646;2024-03-17T14:10:07;12.05;;;5.60;;
59145;SDS011;44928;53.074;6.646;2024-03-17T14:12:35;11.80;;;5.15;;
59145;SDS011;44928;53.074;6.646;2024-03-17T14:15:01;11.50;;;4.85;;
59145;SDS011;44928;53.074;6.646;2024-03-17T14:17:30;10.05;;;5.07;;
59145;SDS011;44928;53.074;6.646;2024-03-17T14:19:56;9.20;;;4.50;;
59145;SDS011;44928;53.074;6.646;2024-03-17T14:22:22;7.80;;;4.18;;
59145;SDS011;44928;53.074;6.646;2024-03-17T14:24:47;9.85;;;4.70;;
59145;SDS011;44928;53.074;6.646;2024-03-17T14:27:15;9.07;;;4.82;;
59145;SDS011;44928;53.074;6.646;2024-03-17T14:29:41;8.95;;;5.10;;
59145;SDS011;44928;53.074;6.646;2024-03-17T14:32:08;10.20;;;5.03;;
59145;SDS011;44928;53.074;6.646;2024-03-17T14:34:34;9.52;;;5.10;;
59145;SDS011;44928;53.074;6.646;2024-03-17T14:37:02;11.18;;;5.53;;
59145;SDS011;44928;53.074;6.646;2024-03-17T14:39:29;9.00;;;4.55;;
59145;SDS011;44928;53.074;6.646;2024-03-17T14:41:55;9.32;;;5.07;;
59145;SDS011;44928;53.074;6.646;2024-03-17T14:44:22;10.43;;;5.32;;
59145;SDS011;44928;53.074;6.646;2024-03-17T14:46:48;10.20;;;5.50;;
59145;SDS011;44928;53.074;6.646;2024-03-17T14:49:17;9.38;;;5.47;;
59145;SDS011;44928;53.074;6.646;2024-03-17T14:51:43;9.10;;;5.25;;
59145;SDS011;44928;53.074;6.646;2024-03-17T14:54:09;10.07;;;5.35;;
59145;SDS011;44928;53.074;6.646;2024-03-17T14:56:38;9.75;;;5.80;;
59145;SDS011;44928;53.074;6.646;2024-03-17T14:59:05;11.45;;;5.88;;
59145;SDS011;44928;53.074;6.646;2024-03-17T15:01:34;12.60;;;6.28;;
59145;SDS011;44928;53.074;6.646;2024-03-17T15:04:00;10.40;;;5.50;;
59145;SDS011;44928;53.074;6.646;2024-03-17T15:06:27;11.10;;;5.25;;
59145;SDS011;44928;53.074;6.646;2024-03-17T15:08:56;12.63;;;5.47;;